createdAt,value
2023-01-29T00:02:16.393Z,-1.09
2023-01-29T00:04:43.423Z,-1.01
2023-01-29T00:07:10.746Z,-1.07
2023-01-29T00:09:38.354Z,-1.05
2023-01-29T00:12:05.824Z,-1.00
2023-01-29T00:14:33.013Z,-0.99
2023-01-29T00:17:00.722Z,-0.98
2023-01-29T00:19:28.051Z,-0.98
2023-01-29T00:21:55.365Z,-0.96
2023-01-29T00:24:22.906Z,-0.94
2023-01-29T00:26:50.321Z,-0.91
2023-01-29T00:29:17.948Z,-0.92
2023-01-29T00:31:46.041Z,-0.89
2023-01-29T00:34:13.491Z,-0.88
2023-01-29T00:36:40.764Z,-0.87
2023-01-29T00:39:10.874Z,-0.86
2023-01-29T00:41:56.934Z,-0.83
2023-01-29T00:44:42.917Z,-0.81
2023-01-29T00:47:42.577Z,-0.77
2023-01-29T00:50:12.713Z,-0.93
2023-01-29T00:52:43.636Z,-0.81
2023-01-29T00:55:12.258Z,-0.76
2023-01-29T00:57:39.976Z,-0.75
2023-01-29T01:00:11.823Z,-0.75
2023-01-29T01:02:57.687Z,-0.74
2023-01-29T01:05:25.412Z,-0.77
2023-01-29T01:07:56.227Z,-0.75
2023-01-29T01:10:29.493Z,-0.80
2023-01-29T01:13:06.299Z,-0.89
2023-01-29T01:15:39.406Z,-0.77
2023-01-29T01:18:06.779Z,-0.92
2023-01-29T01:20:35.796Z,-0.78
2023-01-29T01:23:03.539Z,-0.78
2023-01-29T01:25:31.073Z,-0.79
2023-01-29T01:28:03.019Z,-0.81
2023-01-29T01:30:30.172Z,-0.78
2023-01-29T01:32:57.735Z,-0.78
2023-01-29T01:35:24.965Z,-0.86
2023-01-29T01:37:52.098Z,-0.77
2023-01-29T01:40:24.842Z,-0.78
2023-01-29T01:42:56.758Z,-0.81
2023-01-29T01:45:34.685Z,-0.78
2023-01-29T01:48:22.499Z,-0.82
2023-01-29T01:51:03.530Z,-0.98
2023-01-29T01:53:34.381Z,-0.82
2023-01-29T01:56:19.724Z,-0.85
2023-01-29T01:58:55.580Z,-0.85
2023-01-29T02:01:29.058Z,-0.85
2023-01-29T02:04:26.216Z,-0.98
2023-01-29T02:07:14.826Z,-0.91
2023-01-29T02:10:07.178Z,-0.90
2023-01-29T02:12:36.409Z,-0.89
2023-01-29T02:15:05.067Z,-0.97
2023-01-29T02:17:33.024Z,-1.07
2023-01-29T02:20:08.996Z,-0.99
2023-01-29T02:23:14.965Z,-0.89
2023-01-29T02:26:20.297Z,-0.85
2023-01-29T02:29:22.271Z,-0.83
2023-01-29T02:32:24.099Z,-0.83
2023-01-29T02:35:30.141Z,-0.85
2023-01-29T02:38:52.988Z,-0.87
2023-01-29T02:41:27.241Z,-0.90
2023-01-29T02:44:24.114Z,-0.95
2023-01-29T02:47:21.848Z,-0.97
2023-01-29T02:50:11.232Z,-0.98
2023-01-29T02:52:44.640Z,-0.99
2023-01-29T02:55:22.915Z,-1.02
2023-01-29T02:57:56.261Z,-1.02
2023-01-29T03:00:32.987Z,-1.15
2023-01-29T03:03:42.518Z,-1.04
2023-01-29T03:06:37.584Z,-1.04
2023-01-29T03:09:22.883Z,-1.05
2023-01-29T03:11:58.796Z,-1.05
2023-01-29T03:14:56.323Z,-1.03
2023-01-29T03:17:32.660Z,-1.05
2023-01-29T03:20:01.572Z,-1.03
2023-01-29T03:22:30.113Z,-1.04
2023-01-29T03:25:21.788Z,-1.02
2023-01-29T03:28:15.676Z,-0.97
2023-01-29T03:31:20.379Z,-0.95
2023-01-29T03:34:05.632Z,-0.89
2023-01-29T03:37:00.078Z,-0.85
2023-01-29T03:39:29.387Z,-0.81
2023-01-29T03:42:21.460Z,-0.79
2023-01-29T03:45:37.864Z,-0.75
2023-01-29T03:48:29.277Z,-0.72
2023-01-29T03:51:32.796Z,-0.67
2023-01-29T03:54:21.288Z,-0.64
2023-01-29T03:57:28.667Z,-0.58
2023-01-29T04:00:47.298Z,-0.52
2023-01-29T04:03:34.218Z,-0.47
2023-01-29T04:06:13.736Z,-0.41
2023-01-29T04:09:13.525Z,-0.34
2023-01-29T04:11:49.677Z,-0.28
2023-01-29T04:14:17.708Z,-0.22
2023-01-29T04:16:56.318Z,-0.23
2023-01-29T04:19:23.987Z,-0.13
2023-01-29T04:22:13.983Z,-0.10
2023-01-29T04:24:42.479Z,-0.07
2023-01-29T04:27:33.813Z,-0.02
2023-01-29T04:30:16.336Z,0.01
2023-01-29T04:33:40.189Z,0.07
2023-01-29T04:36:07.260Z,0.09
2023-01-29T04:38:47.810Z,0.11
2023-01-29T04:41:30.671Z,0.12
2023-01-29T04:44:50.814Z,0.16
2023-01-29T04:48:08.190Z,0.17
2023-01-29T04:50:48.654Z,0.20
2023-01-29T04:53:43.526Z,0.21
2023-01-29T04:56:32.562Z,0.28
2023-01-29T04:59:14.712Z,0.32
2023-01-29T05:01:41.968Z,0.35
2023-01-29T05:04:14.620Z,0.33
2023-01-29T05:06:42.670Z,0.30
2023-01-29T05:09:12.598Z,0.30
2023-01-29T05:11:40.507Z,0.23
2023-01-29T05:14:12.482Z,0.34
2023-01-29T05:16:50.542Z,0.40
2023-01-29T05:19:17.932Z,0.43
2023-01-29T05:21:49.572Z,0.36
2023-01-29T05:24:22.379Z,0.40
2023-01-29T05:27:10.439Z,0.36
2023-01-29T05:29:39.029Z,0.45
2023-01-29T05:32:06.241Z,0.45
2023-01-29T05:34:34.335Z,0.55
2023-01-29T05:37:01.636Z,0.60
2023-01-29T05:39:28.823Z,0.61
2023-01-29T05:41:56.171Z,0.65
2023-01-29T05:44:23.389Z,0.59
2023-01-29T05:46:51.142Z,0.66
2023-01-29T05:49:20.675Z,0.67
2023-01-29T05:51:47.781Z,0.68
2023-01-29T05:54:15.394Z,0.68
2023-01-29T05:56:42.578Z,0.71
2023-01-29T05:59:09.580Z,0.75
2023-01-29T06:01:36.823Z,0.78
2023-01-29T06:04:04.128Z,0.81
2023-01-29T06:06:31.443Z,0.81
2023-01-29T06:08:58.522Z,0.77
2023-01-29T06:11:26.007Z,0.87
2023-01-29T06:13:53.208Z,0.88
2023-01-29T06:16:20.498Z,0.91
2023-01-29T06:18:47.848Z,0.89
2023-01-29T06:21:14.979Z,0.83
2023-01-29T06:23:42.122Z,0.85
2023-01-29T06:26:13.372Z,0.97
2023-01-29T06:28:41.047Z,0.95
2023-01-29T06:31:30.397Z,0.90
2023-01-29T06:33:56.213Z,0.88
2023-01-29T06:36:23.279Z,0.83
2023-01-29T06:38:50.548Z,0.92
2023-01-29T06:41:19.662Z,0.91
2023-01-29T06:43:47.936Z,0.91
2023-01-29T06:46:15.313Z,0.89
2023-01-29T06:48:42.424Z,0.93
2023-01-29T06:51:11.381Z,0.93
2023-01-29T06:53:39.390Z,0.96
2023-01-29T06:56:08.116Z,0.98
2023-01-29T06:58:39.110Z,0.94
2023-01-29T07:01:15.490Z,0.95
2023-01-29T07:03:52.699Z,0.94
2023-01-29T07:06:20.268Z,0.96
2023-01-29T07:08:47.507Z,1.05
2023-01-29T07:11:14.637Z,1.08
2023-01-29T07:13:41.775Z,1.09
2023-01-29T07:16:09.872Z,1.13
2023-01-29T07:18:37.497Z,1.17
2023-01-29T07:21:07.188Z,1.18
2023-01-29T07:23:35.057Z,1.22
2023-01-29T07:26:04.662Z,1.24
2023-01-29T07:28:32.133Z,1.26
2023-01-29T07:30:59.728Z,1.28
2023-01-29T07:33:26.908Z,1.30
2023-01-29T07:35:54.141Z,1.33
2023-01-29T07:38:21.687Z,1.35
2023-01-29T07:40:49.019Z,1.38
2023-01-29T07:43:16.883Z,1.40
2023-01-29T07:45:44.047Z,1.42
2023-01-29T07:48:13.406Z,1.44
2023-01-29T07:50:41.659Z,1.46
2023-01-29T07:53:15.315Z,1.50
2023-01-29T07:55:45.366Z,1.53
2023-01-29T07:58:12.908Z,1.55
2023-01-29T08:00:40.352Z,1.58
2023-01-29T08:03:22.471Z,1.62
2023-01-29T08:05:49.535Z,1.64
2023-01-29T08:08:16.667Z,1.65
2023-01-29T08:10:43.776Z,1.67
2023-01-29T08:13:10.868Z,1.70
2023-01-29T08:15:39.299Z,1.74
2023-01-29T08:18:06.860Z,1.76
2023-01-29T08:20:34.350Z,1.81
2023-01-29T08:23:07.543Z,1.83
2023-01-29T08:25:36.431Z,1.87
2023-01-29T08:28:04.378Z,1.90
2023-01-29T08:30:34.311Z,1.92
2023-01-29T08:33:03.625Z,1.82
2023-01-29T08:35:30.789Z,1.89
2023-01-29T08:38:01.365Z,1.91
2023-01-29T08:40:34.042Z,2.02
2023-01-29T08:43:06.312Z,2.03
2023-01-29T08:45:41.088Z,2.07
2023-01-29T08:48:09.604Z,2.07
2023-01-29T08:50:37.121Z,2.08
2023-01-29T08:53:08.045Z,2.07
2023-01-29T08:55:40.478Z,2.09
2023-01-29T08:58:10.539Z,2.12
2023-01-29T09:00:38.715Z,2.14
2023-01-29T09:03:07.916Z,2.16
2023-01-29T09:05:39.818Z,2.20
2023-01-29T09:08:08.692Z,2.22
2023-01-29T09:10:36.163Z,2.28
2023-01-29T09:13:04.018Z,2.33
2023-01-29T09:15:31.257Z,2.40
2023-01-29T09:17:58.410Z,2.40
2023-01-29T09:20:25.561Z,2.53
2023-01-29T09:22:53.737Z,2.58
2023-01-29T09:25:20.845Z,2.60
2023-01-29T09:27:47.884Z,2.65
2023-01-29T09:30:15.388Z,2.69
2023-01-29T09:32:53.644Z,2.70
2023-01-29T09:35:23.715Z,2.76
2023-01-29T09:37:52.368Z,2.82
2023-01-29T09:40:45.133Z,2.87
2023-01-29T09:43:26.420Z,2.89
2023-01-29T09:46:15.891Z,2.96
2023-01-29T09:48:45.961Z,3.05
2023-01-29T09:51:29.335Z,3.11
2023-01-29T09:54:27.070Z,3.15
2023-01-29T09:56:57.075Z,3.20
2023-01-29T09:59:29.494Z,3.23
2023-01-29T10:02:42.217Z,3.30
2023-01-29T10:05:43.285Z,3.32
2023-01-29T10:08:53.618Z,3.33
2023-01-29T10:11:52.474Z,3.38
2023-01-29T10:14:55.313Z,3.42
2023-01-29T10:18:00.606Z,3.44
2023-01-29T10:21:04.697Z,3.45
2023-01-29T10:23:41.313Z,3.47
2023-01-29T10:26:13.013Z,3.48
2023-01-29T10:28:46.595Z,3.51
2023-01-29T10:31:13.652Z,3.56
2023-01-29T10:34:01.414Z,3.61
2023-01-29T10:36:43.799Z,3.65
2023-01-29T10:39:26.037Z,3.75
2023-01-29T10:42:01.682Z,3.81
2023-01-29T10:44:52.863Z,3.87
2023-01-29T10:47:41.776Z,3.94
2023-01-29T10:50:39.553Z,4.02
2023-01-29T10:53:27.477Z,4.10
2023-01-29T10:56:33.435Z,4.15
2023-01-29T10:59:10.669Z,4.19
2023-01-29T11:01:38.094Z,4.26
2023-01-29T11:04:11.826Z,4.32
2023-01-29T11:06:39.183Z,4.33
2023-01-29T11:09:49.679Z,4.28
2023-01-29T11:12:26.800Z,4.28
2023-01-29T11:15:05.679Z,4.29
2023-01-29T11:17:33.177Z,4.30
2023-01-29T11:20:00.280Z,4.30
2023-01-29T11:22:30.376Z,4.26
2023-01-29T11:25:32.757Z,4.31
2023-01-29T11:28:02.821Z,4.33
2023-01-29T11:30:38.271Z,4.35
2023-01-29T11:33:25.999Z,4.40
2023-01-29T11:35:53.232Z,4.44
2023-01-29T11:38:27.119Z,4.50
2023-01-29T11:41:07.466Z,4.55
2023-01-29T11:43:34.512Z,4.62
2023-01-29T11:46:21.823Z,4.74
2023-01-29T11:48:59.122Z,4.86
2023-01-29T11:51:33.532Z,5.00
2023-01-29T11:54:04.427Z,5.13
2023-01-29T11:56:42.640Z,5.22
2023-01-29T11:59:42.785Z,5.31
2023-01-29T12:02:45.498Z,5.37
2023-01-29T12:05:24.287Z,5.44
2023-01-29T12:07:55.672Z,5.46
2023-01-29T12:10:45.132Z,5.51
2023-01-29T12:13:20.068Z,5.54
2023-01-29T12:15:48.808Z,5.60
2023-01-29T12:18:41.706Z,5.66
2023-01-29T12:21:33.483Z,5.66
2023-01-29T12:24:35.802Z,5.73
2023-01-29T12:27:31.719Z,5.76
2023-01-29T12:30:26.159Z,5.76
2023-01-29T12:33:23.952Z,5.76
2023-01-29T12:36:04.249Z,5.76
2023-01-29T12:38:31.593Z,5.76
2023-01-29T12:41:21.683Z,5.67
2023-01-29T12:43:56.122Z,5.57
2023-01-29T12:46:50.738Z,5.51
2023-01-29T12:49:27.507Z,5.46
2023-01-29T12:52:07.428Z,5.43
2023-01-29T12:54:46.085Z,5.36
2023-01-29T12:57:36.497Z,5.34
2023-01-29T13:00:12.127Z,5.35
2023-01-29T13:03:03.614Z,5.31
2023-01-29T13:06:09.683Z,5.30
2023-01-29T13:08:45.687Z,5.24
2023-01-29T13:11:46.813Z,5.22
2023-01-29T13:14:43.007Z,5.21
2023-01-29T13:17:34.396Z,5.22
2023-01-29T13:20:16.607Z,5.23
2023-01-29T13:22:47.152Z,5.26
2023-01-29T13:25:20.075Z,5.31
2023-01-29T13:27:48.823Z,5.32
2023-01-29T13:30:28.502Z,5.32
2023-01-29T13:33:09.636Z,5.34
2023-01-29T13:35:43.086Z,5.35
2023-01-29T13:38:29.546Z,5.34
2023-01-29T13:41:08.691Z,5.36
2023-01-29T13:43:43.309Z,5.37
2023-01-29T13:46:21.446Z,5.37
2023-01-29T13:48:52.455Z,5.35
2023-01-29T13:51:23.147Z,5.36
2023-01-29T13:54:01.065Z,5.40
2023-01-29T13:56:34.123Z,5.36
2023-01-29T13:59:06.230Z,5.36
2023-01-29T14:01:48.367Z,5.34
2023-01-29T14:04:31.048Z,5.33
2023-01-29T14:07:03.344Z,5.33
2023-01-29T14:09:39.671Z,5.34
2023-01-29T14:12:22.014Z,5.31
2023-01-29T14:14:49.193Z,5.27
2023-01-29T14:17:21.032Z,5.24
2023-01-29T14:19:55.180Z,5.22
2023-01-29T14:22:26.751Z,5.24
2023-01-29T14:24:59.679Z,5.18
2023-01-29T14:27:26.934Z,5.18
2023-01-29T14:30:09.935Z,5.16
2023-01-29T14:32:40.614Z,5.17
2023-01-29T14:35:20.659Z,5.21
2023-01-29T14:38:14.752Z,5.24
2023-01-29T14:40:44.314Z,5.28
2023-01-29T14:43:20.938Z,5.30
2023-01-29T14:45:49.725Z,5.29
2023-01-29T14:48:37.108Z,5.29
2023-01-29T14:51:11.461Z,5.32
2023-01-29T14:54:14.048Z,5.32
2023-01-29T14:57:02.435Z,5.31
2023-01-29T14:59:46.856Z,5.34
2023-01-29T15:02:26.988Z,5.33
2023-01-29T15:05:00.635Z,5.31
2023-01-29T15:07:46.411Z,5.33
2023-01-29T15:10:27.297Z,5.32
2023-01-29T15:13:18.787Z,5.35
2023-01-29T15:15:57.842Z,5.35
2023-01-29T15:18:42.612Z,5.36
2023-01-29T15:21:18.950Z,5.34
2023-01-29T15:23:50.348Z,5.31
2023-01-29T15:26:25.960Z,5.31
2023-01-29T15:29:04.573Z,5.33
2023-01-29T15:31:32.427Z,5.34
2023-01-29T15:34:06.455Z,5.34
2023-01-29T15:36:34.166Z,5.34
2023-01-29T15:39:16.631Z,5.32
2023-01-29T15:41:45.818Z,5.32
2023-01-29T15:44:23.790Z,5.29
2023-01-29T15:46:59.275Z,5.23
2023-01-29T15:49:37.703Z,5.21
2023-01-29T15:52:19.325Z,5.19
2023-01-29T15:54:47.157Z,5.15
2023-01-29T15:57:30.712Z,5.12
2023-01-29T15:59:58.726Z,5.06
2023-01-29T16:02:37.506Z,5.03
2023-01-29T16:05:30.361Z,4.98
2023-01-29T16:08:00.039Z,4.94
2023-01-29T16:10:30.995Z,4.89
2023-01-29T16:12:58.959Z,4.83
2023-01-29T16:16:01.805Z,4.80
2023-01-29T16:18:35.888Z,4.74
2023-01-29T16:21:15.198Z,4.68
2023-01-29T16:23:53.773Z,4.65
2023-01-29T16:26:35.166Z,4.62
2023-01-29T16:29:12.055Z,4.59
2023-01-29T16:31:40.152Z,4.61
2023-01-29T16:34:29.752Z,4.59
2023-01-29T16:36:57.811Z,4.62
2023-01-29T16:39:38.530Z,4.59
2023-01-29T16:42:20.072Z,4.58
2023-01-29T16:45:01.169Z,4.57
2023-01-29T16:47:29.736Z,4.54
2023-01-29T16:50:46.236Z,4.54
2023-01-29T16:53:24.571Z,4.52
2023-01-29T16:55:54.490Z,4.51
2023-01-29T16:58:28.181Z,4.50
2023-01-29T17:01:11.339Z,4.51
2023-01-29T17:03:40.830Z,4.52
2023-01-29T17:06:24.708Z,4.49
2023-01-29T17:08:52.628Z,4.51
2023-01-29T17:11:34.365Z,4.52
2023-01-29T17:14:02.078Z,4.51
2023-01-29T17:16:37.689Z,4.52
2023-01-29T17:19:18.699Z,4.53
2023-01-29T17:21:47.141Z,4.49
2023-01-29T17:24:14.217Z,4.51
2023-01-29T17:26:42.062Z,4.52
2023-01-29T17:29:18.179Z,4.55
2023-01-29T17:31:45.439Z,4.55
2023-01-29T17:34:15.131Z,4.59
2023-01-29T17:36:46.096Z,4.59
2023-01-29T17:39:24.435Z,4.60
2023-01-29T17:41:58.943Z,4.61
2023-01-29T17:44:26.714Z,4.61
2023-01-29T17:46:54.290Z,4.61
2023-01-29T17:49:28.605Z,4.61
2023-01-29T17:51:57.034Z,4.62
2023-01-29T17:54:25.655Z,4.63
2023-01-29T17:56:53.949Z,4.61
2023-01-29T17:59:31.660Z,4.60
2023-01-29T18:01:58.884Z,4.59
2023-01-29T18:04:26.536Z,4.59
2023-01-29T18:06:54.440Z,4.58
2023-01-29T18:09:22.666Z,4.58
2023-01-29T18:11:51.136Z,4.58
2023-01-29T18:14:18.641Z,4.58
2023-01-29T18:16:46.915Z,4.59
2023-01-29T18:19:27.502Z,4.60
2023-01-29T18:21:54.973Z,4.60
2023-01-29T18:24:22.222Z,4.59
2023-01-29T18:26:51.220Z,4.57
2023-01-29T18:29:18.604Z,4.55
2023-01-29T18:31:49.465Z,4.52
2023-01-29T18:34:16.814Z,4.47
2023-01-29T18:36:47.043Z,4.43
2023-01-29T18:39:15.631Z,4.46
2023-01-29T18:41:43.126Z,4.47
2023-01-29T18:44:11.169Z,4.47
2023-01-29T18:46:38.487Z,4.44
2023-01-29T18:49:05.747Z,4.44
2023-01-29T18:51:33.386Z,4.44
2023-01-29T18:54:01.131Z,4.45
2023-01-29T18:56:28.461Z,4.46
2023-01-29T18:58:56.307Z,4.44
2023-01-29T19:01:24.163Z,4.44
2023-01-29T19:03:52.108Z,4.43
2023-01-29T19:06:19.521Z,4.42
2023-01-29T19:08:47.481Z,4.40
2023-01-29T19:11:14.789Z,4.41
2023-01-29T19:13:42.905Z,4.40
2023-01-29T19:16:12.075Z,4.40
2023-01-29T19:18:39.365Z,4.39
2023-01-29T19:21:10.128Z,4.40
2023-01-29T19:23:37.937Z,4.41
2023-01-29T19:26:05.565Z,4.43
2023-01-29T19:28:36.433Z,4.45
2023-01-29T19:31:03.777Z,4.46
2023-01-29T19:33:30.984Z,4.47
2023-01-29T19:35:59.713Z,4.47
2023-01-29T19:38:27.813Z,4.47
2023-01-29T19:40:55.491Z,4.49
2023-01-29T19:43:22.845Z,4.49
2023-01-29T19:45:56.580Z,4.46
2023-01-29T19:48:23.967Z,4.46
2023-01-29T19:50:56.198Z,4.49
2023-01-29T19:53:24.197Z,4.51
2023-01-29T19:56:20.855Z,4.53
2023-01-29T19:58:48.238Z,4.55
2023-01-29T20:01:19.125Z,4.55
2023-01-29T20:03:48.654Z,4.53
2023-01-29T20:06:19.785Z,4.55
2023-01-29T20:08:47.238Z,4.57
2023-01-29T20:11:16.756Z,4.55
2023-01-29T20:13:46.273Z,4.57
2023-01-29T20:16:13.620Z,4.60
2023-01-29T20:18:40.682Z,4.62
2023-01-29T20:21:11.721Z,4.64
2023-01-29T20:23:39.967Z,4.66
2023-01-29T20:26:15.600Z,4.66
2023-01-29T20:28:46.274Z,4.70
2023-01-29T20:31:13.384Z,4.70
2023-01-29T20:33:41.403Z,4.73
2023-01-29T20:36:12.653Z,4.75
2023-01-29T20:38:40.001Z,4.76
2023-01-29T20:41:14.696Z,4.78
2023-01-29T20:43:43.719Z,4.78
2023-01-29T20:46:11.725Z,4.81
2023-01-29T20:48:39.532Z,4.77
2023-01-29T20:51:15.573Z,4.77
2023-01-29T20:53:45.785Z,4.79
2023-01-29T20:56:15.032Z,4.84
2023-01-29T20:58:44.164Z,4.88
2023-01-29T21:01:15.873Z,4.91
2023-01-29T21:03:43.583Z,4.94
2023-01-29T21:06:11.907Z,4.95
2023-01-29T21:08:40.563Z,4.96
2023-01-29T21:11:09.457Z,4.98
2023-01-29T21:13:38.099Z,4.99
2023-01-29T21:16:06.067Z,5.02
2023-01-29T21:18:34.066Z,5.03
2023-01-29T21:21:01.270Z,5.02
2023-01-29T21:23:28.493Z,5.04
2023-01-29T21:26:05.447Z,5.06
2023-01-29T21:28:33.362Z,5.07
2023-01-29T21:31:14.464Z,5.08
2023-01-29T21:33:41.723Z,5.09
2023-01-29T21:36:10.210Z,5.12
2023-01-29T21:38:38.189Z,5.12
2023-01-29T21:41:09.595Z,5.12
2023-01-29T21:43:38.415Z,5.12
2023-01-29T21:46:11.966Z,5.11
2023-01-29T21:48:40.490Z,5.12
2023-01-29T21:51:08.271Z,5.10
2023-01-29T21:53:36.711Z,5.12
2023-01-29T21:56:05.904Z,5.15
2023-01-29T21:58:33.648Z,5.13
2023-01-29T22:01:18.505Z,5.14
2023-01-29T22:03:47.896Z,5.14
2023-01-29T22:06:15.845Z,5.16
2023-01-29T22:08:43.375Z,5.15
2023-01-29T22:11:11.393Z,5.20
2023-01-29T22:13:38.694Z,5.21
2023-01-29T22:16:06.488Z,5.20
2023-01-29T22:18:34.335Z,5.21
2023-01-29T22:21:04.507Z,5.21
2023-01-29T22:23:32.486Z,5.21
2023-01-29T22:26:07.559Z,5.24
2023-01-29T22:28:35.466Z,5.24
2023-01-29T22:31:04.692Z,5.27
2023-01-29T22:33:33.498Z,5.28
2023-01-29T22:36:01.333Z,5.28
2023-01-29T22:38:29.078Z,5.30
2023-01-29T22:40:59.297Z,5.31
2023-01-29T22:43:26.363Z,5.30
2023-01-29T22:45:53.576Z,5.31
2023-01-29T22:48:22.276Z,5.31
2023-01-29T22:51:10.501Z,5.32
2023-01-29T22:53:59.604Z,5.33
2023-01-29T22:56:30.612Z,5.35
2023-01-29T22:59:00.242Z,5.36
2023-01-29T23:01:31.450Z,5.38
2023-01-29T23:03:58.716Z,5.39
2023-01-29T23:06:26.339Z,5.42
2023-01-29T23:08:53.695Z,5.44
2023-01-29T23:11:23.507Z,5.46
2023-01-29T23:13:54.533Z,5.48
2023-01-29T23:16:27.771Z,5.40
2023-01-29T23:18:56.216Z,5.47
2023-01-29T23:21:25.235Z,5.52
2023-01-29T23:23:54.299Z,5.56
2023-01-29T23:26:40.694Z,5.58
2023-01-29T23:29:07.770Z,5.59
2023-01-29T23:31:35.321Z,5.59
2023-01-29T23:34:02.833Z,5.63
2023-01-29T23:36:29.889Z,5.65
2023-01-29T23:38:57.088Z,5.68
2023-01-29T23:41:24.290Z,5.72
2023-01-29T23:43:52.856Z,5.74
2023-01-29T23:46:20.452Z,5.77
2023-01-29T23:48:47.587Z,5.79
2023-01-29T23:51:14.750Z,5.83
2023-01-29T23:53:41.953Z,5.84
2023-01-29T23:56:10.525Z,5.88
2023-01-29T23:58:37.718Z,5.90
